createdAt,value
2022-07-29T00:17:00.441Z,100800.94
2022-07-29T00:19:29.060Z,100799.25
2022-07-29T00:21:58.842Z,100796.63
2022-07-29T00:24:27.748Z,100795.66
2022-07-29T00:26:56.342Z,100801.88
2022-07-29T00:29:34.220Z,100790.63
2022-07-29T00:32:03.471Z,100795.75
2022-07-29T00:34:49.371Z,100793.25
2022-07-29T00:37:20.323Z,100786.31
2022-07-29T00:39:48.852Z,100788.00
2022-07-29T00:42:17.546Z,100791.47
2022-07-29T00:44:46.372Z,100782.84
2022-07-29T00:47:14.823Z,100788.97
2022-07-29T00:49:44.453Z,100788.97
2022-07-29T00:52:16.799Z,100783.69
2022-07-29T00:54:47.782Z,100785.59
2022-07-29T00:57:16.342Z,100777.69
2022-07-29T00:59:44.836Z,100786.41
2022-07-29T01:02:13.532Z,100787.38
2022-07-29T01:04:43.282Z,100785.59
2022-07-29T01:07:12.451Z,100783.91
2022-07-29T01:09:46.805Z,100784.75
2022-07-29T01:12:21.204Z,100783.91
2022-07-29T01:14:51.242Z,100782.13
2022-07-29T01:17:25.507Z,100786.53
2022-07-29T01:20:00.380Z,100787.47
2022-07-29T01:22:38.280Z,100785.78
2022-07-29T01:25:42.960Z,100778.75
2022-07-29T01:28:37.597Z,100786.63
2022-07-29T01:31:12.462Z,100787.59
2022-07-29T01:34:05.851Z,100787.59
2022-07-29T01:36:38.062Z,100795.34
2022-07-29T01:39:11.185Z,100793.69
2022-07-29T01:41:45.924Z,100796.41
2022-07-29T01:44:19.801Z,100795.53
2022-07-29T01:46:56.366Z,100797.31
2022-07-29T01:49:30.588Z,100793.78
2022-07-29T01:52:03.041Z,100792.91
2022-07-29T01:54:36.900Z,100790.28
2022-07-29T01:57:07.430Z,100795.53
2022-07-29T01:59:37.570Z,100795.53
2022-07-29T02:02:10.748Z,100788.59
2022-07-29T02:04:41.544Z,100793.88
2022-07-29T02:07:15.717Z,100795.53
2022-07-29T02:09:44.921Z,100782.50
2022-07-29T02:12:14.220Z,100781.69
2022-07-29T02:14:46.729Z,100784.31
2022-07-29T02:17:23.430Z,100786.94
2022-07-29T02:19:53.454Z,100788.72
2022-07-29T02:22:24.016Z,100782.59
2022-07-29T02:24:54.001Z,100785.22
2022-07-29T02:27:23.021Z,100779.97
2022-07-29T02:29:53.235Z,100782.59
2022-07-29T02:32:25.012Z,100784.41
2022-07-29T02:34:55.011Z,100783.69
2022-07-29T02:37:23.910Z,100782.72
2022-07-29T02:39:54.593Z,100778.31
2022-07-29T02:42:25.092Z,100775.69
2022-07-29T02:44:53.645Z,100774.84
2022-07-29T02:47:27.085Z,100768.75
2022-07-29T02:50:00.534Z,100766.97
2022-07-29T02:52:34.360Z,100765.28
2022-07-29T02:55:09.980Z,100761.78
2022-07-29T02:57:54.709Z,100756.53
2022-07-29T03:00:27.130Z,100763.59
2022-07-29T03:03:01.781Z,100761.91
2022-07-29T03:05:30.990Z,100767.25
2022-07-29T03:08:02.280Z,100771.59
2022-07-29T03:10:31.710Z,100762.97
2022-07-29T03:13:01.042Z,100759.38
2022-07-29T03:15:30.150Z,100758.44
2022-07-29T03:18:01.130Z,100763.69
2022-07-29T03:20:29.830Z,100768.22
2022-07-29T03:22:58.311Z,100768.22
2022-07-29T03:25:28.269Z,100767.25
2022-07-29T03:27:57.589Z,100774.31
2022-07-29T03:30:26.529Z,100769.16
2022-07-29T03:32:56.603Z,100782.31
2022-07-29T03:35:28.819Z,100783.16
2022-07-29T03:37:57.207Z,100789.34
2022-07-29T03:40:30.152Z,100786.72
2022-07-29T03:43:01.476Z,100798.06
2022-07-29T03:45:32.812Z,100798.91
2022-07-29T03:48:04.724Z,100803.34
2022-07-29T03:50:36.554Z,100798.06
2022-07-29T03:53:05.610Z,100799.88
2022-07-29T03:55:40.011Z,100794.63
2022-07-29T03:58:10.021Z,100796.38
2022-07-29T04:00:38.961Z,100791.13
2022-07-29T04:03:10.825Z,100792.00
2022-07-29T04:05:41.739Z,100794.69
2022-07-29T04:08:10.199Z,100792.06
2022-07-29T04:10:40.116Z,100793.88
2022-07-29T04:13:08.524Z,100796.50
2022-07-29T04:15:37.019Z,100800.91
2022-07-29T04:18:05.510Z,100802.59
2022-07-29T04:20:33.929Z,100787.78
2022-07-29T04:23:03.760Z,100795.66
2022-07-29T04:25:32.200Z,100801.75
2022-07-29T04:28:04.079Z,100803.53
2022-07-29T04:30:34.460Z,100808.81
2022-07-29T04:33:03.309Z,100807.09
2022-07-29T04:35:36.714Z,100807.97
2022-07-29T04:38:15.549Z,100808.88
2022-07-29T04:40:44.404Z,100801.00
2022-07-29T04:43:14.193Z,100801.84
2022-07-29T04:45:43.950Z,100806.25
2022-07-29T04:48:12.400Z,100802.72
2022-07-29T04:50:40.960Z,100803.53
2022-07-29T04:53:10.769Z,100799.22
2022-07-29T04:55:39.264Z,100799.22
2022-07-29T04:58:08.630Z,100798.28
2022-07-29T05:00:37.305Z,100803.53
2022-07-29T05:03:06.117Z,100797.44
2022-07-29T05:05:34.570Z,100799.22
2022-07-29T05:08:02.969Z,100797.53
2022-07-29T05:10:32.860Z,100790.50
2022-07-29T05:13:01.192Z,100792.28
2022-07-29T05:15:29.610Z,100794.91
2022-07-29T05:17:58.024Z,100803.75
2022-07-29T05:20:29.315Z,100799.34
2022-07-29T05:22:58.753Z,100802.78
2022-07-29T05:25:43.207Z,100804.59
2022-07-29T05:28:14.619Z,100805.44
2022-07-29T05:30:43.030Z,100801.13
2022-07-29T05:33:34.646Z,100805.44
2022-07-29T05:36:00.782Z,100809.00
2022-07-29T05:38:29.656Z,100810.69
2022-07-29T05:41:00.028Z,100802.78
2022-07-29T06:19:41.620Z,100813.63
2022-07-29T06:22:09.999Z,100813.50
2022-07-29T06:24:42.641Z,100811.00
2022-07-29T06:27:11.050Z,100813.63
2022-07-29T06:29:39.439Z,100813.72
2022-07-29T06:32:10.263Z,100823.31
2022-07-29T06:34:38.730Z,100829.41
2022-07-29T06:37:15.750Z,100827.59
2022-07-29T06:39:44.279Z,100830.25
2022-07-29T06:42:12.745Z,100830.25
2022-07-29T06:44:41.110Z,100839.06
2022-07-29T06:47:09.520Z,100825.06
2022-07-29T06:49:37.889Z,100832.03
2022-07-29T06:52:06.879Z,100826.78
2022-07-29T06:54:36.730Z,100820.69
2022-07-29T06:57:05.246Z,100825.06
2022-07-29T06:59:35.720Z,100825.94
2022-07-29T07:02:04.616Z,100832.03
2022-07-29T07:04:33.249Z,100836.44
2022-07-29T07:07:01.709Z,100835.50
2022-07-29T07:09:39.836Z,100838.97
2022-07-29T07:12:11.166Z,100841.47
2022-07-29T07:14:40.919Z,100842.22
2022-07-29T07:17:09.471Z,100842.13
2022-07-29T07:19:37.918Z,100845.59
2022-07-29T07:22:06.403Z,100844.63
2022-07-29T07:24:34.803Z,100849.81
2022-07-29T07:27:03.296Z,100854.84
2022-07-29T07:29:33.129Z,100849.38
2022-07-29T07:32:01.718Z,100860.72
2022-07-29T07:34:31.260Z,100859.56
2022-07-29T07:36:59.701Z,100862.19
2022-07-29T07:39:28.409Z,100858.81
2022-07-29T07:41:56.944Z,100854.44
2022-07-29T07:44:25.311Z,100850.84
2022-07-29T07:46:55.270Z,100843.81
2022-07-29T07:49:23.758Z,100843.72
2022-07-29T07:51:53.730Z,100842.84
2022-07-29T07:54:22.164Z,100847.94
2022-07-29T07:56:53.330Z,100858.13
2022-07-29T07:59:22.002Z,100849.09
2022-07-29T08:01:56.143Z,100836.78
2022-07-29T08:04:28.416Z,100845.41
2022-07-29T08:06:58.166Z,100844.66
2022-07-29T08:09:29.786Z,100847.91
2022-07-29T08:12:00.043Z,100857.50
2022-07-29T08:14:28.520Z,100853.72
2022-07-29T08:16:56.984Z,100850.03
2022-07-29T08:19:26.938Z,100844.78
2022-07-29T08:21:55.965Z,100842.78
2022-07-29T08:24:42.218Z,100846.56
2022-07-29T08:27:33.364Z,100835.31
2022-07-29T08:29:59.111Z,100836.16
2022-07-29T08:32:51.904Z,100834.28
2022-07-29T08:35:19.483Z,100829.00
2022-07-29T08:37:51.488Z,100827.09
2022-07-29T08:40:20.357Z,100823.53
2022-07-29T08:43:00.819Z,100830.59
2022-07-29T08:45:31.988Z,100814.69
2022-07-29T08:48:01.209Z,100801.97
2022-07-29T08:50:31.123Z,100805.84
2022-07-29T08:53:00.176Z,100805.75
2022-07-29T08:55:29.844Z,100807.44
2022-07-29T08:57:59.098Z,100826.59
2022-07-29T09:00:28.875Z,100824.25
2022-07-29T09:03:00.582Z,100826.25
2022-07-29T09:05:31.094Z,100831.63
2022-07-29T09:07:59.841Z,100824.16
2022-07-29T09:10:28.580Z,100821.50
2022-07-29T09:12:57.706Z,100828.59
2022-07-29T09:15:26.380Z,100828.19
2022-07-29T09:17:56.505Z,100830.72
2022-07-29T09:20:25.378Z,100831.72
2022-07-29T09:22:55.809Z,100831.97
2022-07-29T09:25:37.382Z,100836.00
2022-07-29T09:28:10.150Z,100835.03
2022-07-29T09:30:41.745Z,100835.88
2022-07-29T09:33:10.199Z,100839.69
2022-07-29T09:35:38.599Z,100836.09
2022-07-29T09:38:15.329Z,100830.84
2022-07-29T09:40:43.880Z,100830.00
2022-07-29T09:43:14.109Z,100822.84
2022-07-29T09:45:42.919Z,100816.75
2022-07-29T09:48:19.019Z,100810.97
2022-07-29T09:50:49.563Z,100811.19
2022-07-29T09:53:35.581Z,100810.56
2022-07-29T09:56:03.994Z,100815.00
2022-07-29T09:58:34.772Z,100805.72
2022-07-29T10:01:04.477Z,100802.66
2022-07-29T10:04:37.019Z,100804.13
2022-07-29T10:07:15.179Z,100810.22
2022-07-29T10:10:31.765Z,100802.47
2022-07-29T10:13:23.469Z,100807.94
2022-07-29T10:16:29.773Z,100814.25
2022-07-29T10:22:58.990Z,100823.31
2022-07-29T10:26:19.938Z,100832.88
2022-07-29T10:29:06.391Z,100831.91
2022-07-29T10:32:12.700Z,100841.50
2022-07-29T10:35:07.279Z,100847.78
2022-07-29T10:37:46.840Z,100851.47
2022-07-29T10:40:42.092Z,100859.28
2022-07-29T10:43:22.258Z,100859.28
2022-07-29T10:45:57.789Z,100857.97
2022-07-29T10:48:26.915Z,100856.09
2022-07-29T10:50:56.695Z,100848.19
2022-07-29T10:53:25.835Z,100841.38
2022-07-29T10:56:06.392Z,100843.38
2022-07-29T10:58:36.590Z,100836.53
2022-07-29T11:01:37.606Z,100830.22
2022-07-29T11:04:08.205Z,100836.00
2022-07-29T11:07:10.149Z,100831.69
2022-07-29T11:09:39.571Z,100831.06
2022-07-29T11:12:49.259Z,100826.84
2022-07-29T11:15:22.050Z,100831.19
2022-07-29T11:18:08.119Z,100832.97
2022-07-29T11:20:45.846Z,100829.47
2022-07-29T11:23:24.639Z,100836.75
2022-07-29T11:26:25.734Z,100836.66
2022-07-29T11:28:59.471Z,100838.53
2022-07-29T11:31:40.619Z,100843.91
2022-07-29T11:37:27.742Z,100847.19
2022-07-29T11:40:15.431Z,100844.94
2022-07-29T11:42:53.379Z,100841.38
2022-07-29T11:45:43.113Z,100841.56
2022-07-29T11:48:29.643Z,100840.94
2022-07-29T11:51:13.214Z,100842.00
2022-07-29T11:53:42.109Z,100840.22
2022-07-29T11:56:11.755Z,100838.44
2022-07-29T11:58:45.689Z,100836.53
2022-07-29T12:01:16.479Z,100846.84
2022-07-29T12:03:48.111Z,100845.91
2022-07-29T12:07:03.269Z,100845.59
2022-07-29T12:09:11.274Z,100838.72
2022-07-29T12:11:47.392Z,100842.31
2022-07-29T12:14:31.269Z,100838.63
2022-07-29T12:17:00.454Z,100835.56
2022-07-29T12:23:34.497Z,100829.75
2022-07-29T12:26:07.561Z,100821.97
2022-07-29T12:28:39.662Z,100827.34
2022-07-29T12:31:43.406Z,100824.50
2022-07-29T12:34:19.330Z,100813.56
2022-07-29T12:36:49.400Z,100819.66
2022-07-29T12:39:20.100Z,100824.31
2022-07-29T12:41:48.573Z,100813.69
2022-07-29T12:44:17.006Z,100811.91
2022-07-29T12:46:47.774Z,100809.34
2022-07-29T12:49:24.102Z,100804.72
2022-07-29T12:51:53.315Z,100803.88
2022-07-29T12:54:23.135Z,100802.81
2022-07-29T12:57:01.904Z,100805.47
2022-07-29T12:59:30.358Z,100808.72
2022-07-29T13:02:01.261Z,100808.59
2022-07-29T13:04:31.104Z,100814.88
2022-07-29T13:07:09.238Z,100815.28
2022-07-29T13:09:57.212Z,100814.53
2022-07-29T13:12:26.436Z,100811.28
2022-07-29T13:14:55.766Z,100812.47
2022-07-29T13:17:28.754Z,100821.09
2022-07-29T13:20:14.013Z,100815.50
2022-07-29T13:22:45.524Z,100811.91
2022-07-29T13:25:17.456Z,100804.41
2022-07-29T13:27:47.655Z,100810.84
2022-07-29T13:30:35.086Z,100807.16
2022-07-29T13:33:03.837Z,100807.16
2022-07-29T13:35:32.954Z,100796.41
2022-07-29T13:38:01.344Z,100799.59
2022-07-29T13:40:31.645Z,100807.34
2022-07-29T13:43:00.079Z,100802.84
2022-07-29T13:45:29.319Z,100802.31
2022-07-29T13:47:58.065Z,100800.75
2022-07-29T13:50:26.462Z,100797.88
2022-07-29T13:52:54.966Z,100797.19
2022-07-29T13:55:23.572Z,100804.41
2022-07-29T13:57:53.806Z,100791.97
2022-07-29T14:00:22.675Z,100806.41
2022-07-29T14:02:51.146Z,100803.66
2022-07-29T14:05:19.707Z,100797.34
2022-07-29T14:07:48.526Z,100794.50
2022-07-29T14:10:20.079Z,100789.44
2022-07-29T14:12:48.747Z,100793.00
2022-07-29T14:15:18.579Z,100792.09
2022-07-29T14:17:47.002Z,100791.97
2022-07-29T14:20:17.241Z,100796.63
2022-07-29T14:22:45.996Z,100803.16
2022-07-29T14:25:15.779Z,100807.72
2022-07-29T14:27:44.857Z,100808.41
2022-07-29T14:30:14.165Z,100806.41
2022-07-29T14:32:44.145Z,100809.06
2022-07-29T14:35:12.586Z,100806.41
2022-07-29T14:37:41.478Z,100803.78
2022-07-29T14:40:11.079Z,100803.78
2022-07-29T14:42:40.085Z,100807.38
2022-07-29T14:45:10.126Z,100796.00
2022-07-29T14:47:39.095Z,100795.03
2022-07-29T14:50:09.965Z,100803.66
2022-07-29T14:52:38.423Z,100802.50
2022-07-29T14:55:19.349Z,100792.09
2022-07-29T14:57:49.315Z,100795.19
2022-07-29T15:00:18.086Z,100790.97
2022-07-29T15:03:01.503Z,100795.41
2022-07-29T15:05:32.562Z,100790.16
2022-07-29T15:08:01.747Z,100796.84
2022-07-29T15:10:30.168Z,100786.31
2022-07-29T15:12:59.180Z,100782.72
2022-07-29T15:15:28.234Z,100774.13
2022-07-29T15:17:56.690Z,100769.56
2022-07-29T15:20:26.525Z,100768.66
2022-07-29T15:22:57.192Z,100763.16
2022-07-29T15:25:28.210Z,100764.28
2022-07-29T15:28:01.271Z,100753.88
2022-07-29T15:30:34.292Z,100748.88
2022-07-29T15:33:05.219Z,100741.19
2022-07-29T15:35:40.520Z,100745.63
2022-07-29T15:38:10.490Z,100747.41
2022-07-29T15:40:40.254Z,100751.56
2022-07-29T15:43:09.105Z,100751.66
2022-07-29T15:45:40.437Z,100747.59
2022-07-29T15:48:14.721Z,100754.00
2022-07-29T15:50:47.127Z,100753.47
2022-07-29T15:53:17.228Z,100763.38
2022-07-29T15:55:46.435Z,100761.81
2022-07-29T15:58:15.485Z,100760.09
2022-07-29T16:00:44.170Z,100751.38
2022-07-29T16:03:12.814Z,100752.13
2022-07-29T16:05:41.475Z,100758.56
2022-07-29T16:08:10.215Z,100760.97
2022-07-29T16:10:40.346Z,100752.00
2022-07-29T16:13:08.966Z,100748.88
2022-07-29T16:15:37.774Z,100744.66
2022-07-29T16:18:06.500Z,100751.59
2022-07-29T16:20:34.991Z,100745.41
2022-07-29T16:23:10.115Z,100738.34
2022-07-29T16:25:59.156Z,100732.47
2022-07-29T16:28:28.412Z,100736.78
2022-07-29T16:30:57.682Z,100727.91
2022-07-29T16:33:26.769Z,100721.72
2022-07-29T16:35:55.440Z,100731.50
2022-07-29T16:38:24.150Z,100734.28
2022-07-29T16:40:54.239Z,100736.84
2022-07-29T16:43:22.775Z,100732.91
2022-07-29T16:45:51.801Z,100731.81
2022-07-29T16:48:20.875Z,100727.00
2022-07-29T16:50:50.610Z,100727.91
2022-07-29T16:53:19.100Z,100728.88
2022-07-29T16:55:47.972Z,100730.31
2022-07-29T16:58:18.470Z,100728.75
2022-07-29T17:00:47.553Z,100730.53
2022-07-29T17:06:49.897Z,100729.72
2022-07-29T17:09:20.630Z,100720.97
2022-07-29T17:11:55.143Z,100727.09
2022-07-29T17:14:27.351Z,100721.81
2022-07-29T17:17:01.265Z,100729.63
2022-07-29T17:19:32.089Z,100724.44
2022-07-29T17:22:10.444Z,100718.88
2022-07-29T17:24:41.531Z,100733.91
2022-07-29T17:27:10.480Z,100732.25
2022-07-29T17:29:41.187Z,100719.09
2022-07-29T17:32:12.761Z,100717.28
2022-07-29T17:34:42.646Z,100718.13
2022-07-29T17:37:12.503Z,100723.50
2022-07-29T17:39:44.493Z,100725.28
2022-07-29T17:42:14.916Z,100721.94
2022-07-29T17:44:44.940Z,100720.84
2022-07-29T17:47:16.041Z,100714.06
2022-07-29T17:49:45.376Z,100712.03
2022-07-29T17:52:14.154Z,100709.72
2022-07-29T17:54:42.600Z,100713.31
2022-07-29T17:57:11.161Z,100710.59
2022-07-29T17:59:39.660Z,100711.66
2022-07-29T18:02:12.873Z,100711.75
2022-07-29T18:04:41.441Z,100713.31
2022-07-29T18:07:11.803Z,100700.28
2022-07-29T18:09:41.770Z,100696.19
2022-07-29T18:12:12.411Z,100703.97
2022-07-29T18:14:42.490Z,100715.34
2022-07-29T18:17:13.997Z,100716.31
2022-07-29T18:19:49.731Z,100715.56
2022-07-29T18:22:18.291Z,100710.63
2022-07-29T18:24:48.761Z,100717.34
2022-07-29T18:27:19.226Z,100713.91
2022-07-29T18:29:51.260Z,100707.06
2022-07-29T18:32:28.852Z,100713.53
2022-07-29T18:34:58.091Z,100711.88
2022-07-29T18:38:01.948Z,100699.03
2022-07-29T18:40:17.550Z,100692.34
2022-07-29T18:42:46.182Z,100692.44
2022-07-29T18:45:19.343Z,100688.50
2022-07-29T18:47:50.420Z,100684.09
2022-07-29T18:50:19.551Z,100681.59
2022-07-29T18:52:48.150Z,100689.47
2022-07-29T18:55:16.665Z,100682.66
2022-07-29T18:57:54.359Z,100697.16
2022-07-29T19:00:25.881Z,100696.41
2022-07-29T19:02:55.970Z,100686.25
2022-07-29T19:05:24.900Z,100693.06
2022-07-29T19:07:56.216Z,100700.59
2022-07-29T19:10:25.150Z,100705.88
2022-07-29T19:12:54.590Z,100689.56
2022-07-29T19:15:24.141Z,100692.56
2022-07-29T19:17:53.989Z,100687.53
2022-07-29T19:20:28.805Z,100689.94
2022-07-29T19:22:57.501Z,100698.88
2022-07-29T19:25:26.839Z,100691.09
2022-07-29T19:27:56.261Z,100694.66
2022-07-29T19:30:24.904Z,100700.78
2022-07-29T19:32:53.519Z,100695.41
2022-07-29T19:35:32.494Z,100686.91
2022-07-29T19:38:04.020Z,100703.91
2022-07-29T19:40:32.879Z,100698.38
2022-07-29T19:43:01.470Z,100708.56
2022-07-29T19:45:30.580Z,100703.00
2022-07-29T19:48:01.786Z,100707.00
2022-07-29T19:50:30.749Z,100696.81
2022-07-29T19:52:59.730Z,100697.88
2022-07-29T19:55:29.920Z,100698.84
2022-07-29T19:57:59.140Z,100694.03
2022-07-29T20:00:28.854Z,100700.00
2022-07-29T20:02:58.722Z,100698.19
2022-07-29T20:05:28.558Z,100714.41
2022-07-29T20:07:57.370Z,100709.84
2022-07-29T20:10:26.429Z,100694.72
2022-07-29T20:12:57.260Z,100715.31
2022-07-29T20:15:25.834Z,100715.53
2022-07-29T20:17:57.355Z,100718.31
2022-07-29T20:20:26.750Z,100715.66
2022-07-29T20:22:55.440Z,100717.47
2022-07-29T20:25:24.092Z,100711.34
2022-07-29T20:27:52.840Z,100715.44
2022-07-29T20:30:23.800Z,100707.78
2022-07-29T20:32:52.400Z,100710.50
2022-07-29T20:35:22.570Z,100713.97
2022-07-29T20:37:55.987Z,100722.38
2022-07-29T20:40:26.187Z,100720.94
2022-07-29T20:42:55.309Z,100711.47
2022-07-29T20:45:25.992Z,100723.56
2022-07-29T20:47:54.943Z,100718.63
2022-07-29T20:50:24.637Z,100723.78
2022-07-29T20:52:53.755Z,100732.28
2022-07-29T20:55:24.067Z,100726.91
2022-07-29T20:57:53.060Z,100720.53
2022-07-29T21:00:21.550Z,100718.41
2022-07-29T21:02:51.971Z,100734.69
2022-07-29T21:05:21.310Z,100721.25
2022-07-29T21:07:49.920Z,100723.56
2022-07-29T21:10:19.243Z,100727.03
2022-07-29T21:12:48.217Z,100715.97
2022-07-29T21:15:16.655Z,100716.22
2022-07-29T21:17:48.330Z,100717.91
2022-07-29T21:20:19.863Z,100719.34
2022-07-29T21:22:48.426Z,100725.66
2022-07-29T21:25:16.960Z,100718.53
2022-07-29T21:28:02.590Z,100706.03
2022-07-29T21:30:31.100Z,100714.75
2022-07-29T21:32:59.793Z,100723.16
2022-07-29T21:36:01.749Z,100717.91
2022-07-29T21:38:19.450Z,100710.25
2022-07-29T21:40:49.093Z,100722.81
2022-07-29T21:43:18.271Z,100710.84
2022-07-29T21:45:50.495Z,100721.03
2022-07-29T21:48:19.902Z,100718.69
2022-07-29T21:50:50.372Z,100726.25
2022-07-29T21:53:20.832Z,100717.28
2022-07-29T21:55:55.484Z,100703.22
2022-07-29T21:58:34.581Z,100712.78
2022-07-29T22:01:03.830Z,100710.84
2022-07-29T22:03:32.551Z,100724.88
2022-07-29T22:06:02.480Z,100730.84
2022-07-29T22:08:31.041Z,100733.38
2022-07-29T22:11:00.100Z,100726.31
2022-07-29T22:13:29.890Z,100724.63
2022-07-29T22:16:00.061Z,100722.63
2022-07-29T22:18:31.821Z,100726.19
2022-07-29T22:21:04.640Z,100720.81
2022-07-29T22:23:34.851Z,100714.59
2022-07-29T22:26:06.983Z,100715.13
2022-07-29T22:28:37.571Z,100701.97
2022-07-29T22:31:07.647Z,100711.03
2022-07-29T22:33:37.720Z,100712.09
2022-07-29T22:36:10.191Z,100714.81
2022-07-29T22:38:38.742Z,100714.81
2022-07-29T22:41:07.160Z,100708.72
2022-07-29T22:43:36.622Z,100709.56
2022-07-29T22:46:05.244Z,100719.25
2022-07-29T22:48:33.742Z,100726.19
2022-07-29T22:51:02.190Z,100729.56
2022-07-29T22:53:32.041Z,100730.75
2022-07-29T22:56:00.474Z,100725.47
2022-07-29T22:58:29.095Z,100724.63
2022-07-29T23:00:57.595Z,100719.59
2022-07-29T23:03:26.064Z,100722.09
2022-07-29T23:05:54.620Z,100718.50
2022-07-29T23:08:28.830Z,100715.88
2022-07-29T23:10:59.140Z,100716.84
2022-07-29T23:13:28.256Z,100713.16
2022-07-29T23:15:56.741Z,100722.84
2022-07-29T23:18:26.470Z,100719.38
2022-07-29T23:20:56.776Z,100714.22
2022-07-29T23:23:27.535Z,100710.41
2022-07-29T23:26:05.010Z,100710.06
2022-07-29T23:28:35.070Z,100708.06
2022-07-29T23:31:04.766Z,100711.41
2022-07-29T23:33:33.523Z,100720.03
2022-07-29T23:36:01.977Z,100711.41
2022-07-29T23:38:30.455Z,100711.53
2022-07-29T23:40:59.120Z,100716.06
2022-07-29T23:43:29.121Z,100716.78
2022-07-29T23:45:58.153Z,100716.69
2022-07-29T23:48:27.320Z,100707.00
2022-07-29T23:50:56.170Z,100702.56
2022-07-29T23:53:24.765Z,100713.94
2022-07-29T23:55:53.194Z,100713.81
2022-07-29T23:58:21.655Z,100702.94
